KMLP - Mullan Pass
Updated: Tue, 25-Sep-2018 2:53pm PDT
Clear
Clear
 Wind from varies
Wind: varies at 5 mph , 7 km/h
Temperature : 52°F , 11°C
Dew Point : 28°F , -2°C
Humidity : 41%
Barometer : 30.30 inHg , 1026.1 hPa
Clouds : Clear
Visibility : 10 miles , 16 km
2018/09/25 21:53 KMLP 252153Z AUTO VRB04KT 10SM CLR 11/M02 A3030 RMK AO2 SLP205 T01111022

 

KCOE - Coeur d Alene
Updated: Tue, 25-Sep-2018 2:56pm PDT
Clear
Clear
 Wind from E
Wind: E at 5 mph , 7 km/h
Temperature : 68°F , 20°C
Dew Point : 37°F , 3°C
Humidity : 33%
Barometer : 30.25 inHg , 1024.4 hPa
Clouds : Clear
Visibility : 9 miles , 14 km
2018/09/25 21:56 KCOE 252156Z AUTO 08004KT 9SM CLR 20/03 A3025 RMK AO2 SLP261 T02000028 PNO $

 

KLWS - Lewiston
Updated: Tue, 25-Sep-2018 2:56pm PDT
Clear
Clear
 Wind from calm
Wind: Calm
Temperature : 72°F , 22°C
Dew Point : 34°F , 1°C
Humidity : 25%
Barometer : 30.24 inHg , 1024 hPa
Clouds : Clear
Visibility : 10 miles , 16 km
2018/09/25 21:56 KLWS 252156Z 00000KT 10SM CLR 22/01 A3024 RMK AO2 SLP237 T02220006

 

KGEG - Spokane Intl
Updated: Tue, 25-Sep-2018 2:53pm PDT
Mostly cloudy
Mostly cloudy
 Wind from calm
Wind: Calm
Temperature : 70°F , 21°C
Dew Point : 32°F , 0°C
Humidity : 25%
Barometer : 30.25 inHg , 1024.4 hPa
Clouds : Mostly cloudy
Visibility : 10 miles , 16 km
2018/09/25 21:53 KGEG 252153Z 00000KT 10SM FEW065 BKN250 21/00 A3025 RMK AO2 SLP239 T02060000